Time;durP1;ratioP1;P1;durP2;ratioP2;P2;SDS_P1;SDS_P2;PMS_P1;PMS_P2;Temp;Humidity;BMP_temperature;BMP_pressure;BME280_temperature;BME280_humidity;BME280_pressure;Samples;Min_cycle;Max_cycle;Signal;HPM_P1;HPM_P2
2022/10/24 00:01:46;;;;;;;0.70;0.70;;;5.60;99.90;;;;;;5055156;28;20245;-77
2022/10/24 00:04:12;;;;;;;0.60;0.60;;;5.60;99.90;;;;;;5054875;28;20194;-76
2022/10/24 00:06:40;;;;;;;0.65;0.65;;;5.60;99.90;;;;;;5054750;28;20272;-76
2022/10/24 00:09:06;;;;;;;0.55;0.55;;;5.60;99.90;;;;;;5054147;28;20190;-76
2022/10/24 00:11:33;;;;;;;0.60;0.60;;;5.70;99.90;;;;;;5054312;28;20653;-76
2022/10/24 00:13:58;;;;;;;1.10;1.00;;;5.70;99.90;;;;;;5053365;28;20213;-76
2022/10/24 00:16:26;;;;;;;0.60;0.60;;;5.70;99.90;;;;;;5054469;28;20676;-77
2022/10/24 00:18:52;;;;;;;0.60;0.60;;;5.60;99.90;;;;;;5053439;28;20198;-76
2022/10/24 00:21:18;;;;;;;1.00;1.00;;;5.60;99.90;;;;;;5052890;28;20778;-76
2022/10/24 00:23:43;;;;;;;0.70;0.70;;;5.60;99.90;;;;;;5054081;28;20711;-76
2022/10/24 00:26:10;;;;;;;0.55;0.55;;;5.60;99.90;;;;;;5053784;28;20207;-76
2022/10/24 00:28:37;;;;;;;0.50;0.50;;;5.60;99.90;;;;;;5053660;28;20612;-76
2022/10/24 00:31:04;;;;;;;0.60;0.60;;;5.60;99.90;;;;;;5053179;28;20251;-76
2022/10/24 00:33:30;;;;;;;0.60;0.60;;;5.60;99.90;;;;;;5052879;28;20224;-76
2022/10/24 00:35:56;;;;;;;0.60;0.60;;;5.60;99.90;;;;;;5052748;28;20220;-75
2022/10/24 00:38:21;;;;;;;0.57;0.57;;;5.60;99.90;;;;;;5052766;28;20553;-76
2022/10/24 00:40:47;;;;;;;0.60;0.60;;;5.60;99.90;;;;;;5052962;28;20210;-75
2022/10/24 00:43:25;;;;;;;0.50;0.50;;;5.60;99.90;;;;;;5049573;28;20281;-75
2022/10/24 00:45:58;;;;;;;0.47;0.47;;;5.50;99.90;;;;;;5032735;28;20214;-76
2022/10/24 00:48:36;;;;;;;0.70;0.70;;;5.50;99.90;;;;;;5049003;28;20209;-75
2022/10/24 00:51:20;;;;;;;0.90;0.90;;;5.50;99.90;;;;;;5034101;28;20591;-76
2022/10/24 00:53:50;;;;;;;0.60;0.60;;;5.50;99.90;;;;;;5033681;28;20190;-75
2022/10/24 00:56:18;;;;;;;0.60;0.60;;;5.50;99.90;;;;;;5048193;28;20217;-76
2022/10/24 00:58:45;;;;;;;0.50;0.50;;;5.50;99.90;;;;;;5053752;28;20679;-76
2022/10/24 01:01:11;;;;;;;0.70;0.70;;;5.50;99.90;;;;;;5054277;28;20212;-76
2022/10/24 01:03:37;;;;;;;0.50;0.50;;;5.50;99.90;;;;;;5053702;28;20525;-77
2022/10/24 01:06:06;;;;;;;0.70;0.70;;;5.50;99.90;;;;;;5053516;28;20197;-77
2022/10/24 01:08:46;;;;;;;0.60;0.60;;;5.50;99.90;;;;;;5052701;28;20197;-76
2022/10/24 01:11:43;;;;;;;0.60;0.60;;;5.50;99.90;;;;;;5052463;28;20202;-77
2022/10/24 01:14:24;;;;;;;0.60;0.60;;;5.50;99.90;;;;;;5053343;28;20224;-77
2022/10/24 01:16:59;;;;;;;0.60;0.60;;;5.50;99.90;;;;;;5053122;28;20656;-76
2022/10/24 01:19:24;;;;;;;0.57;0.57;;;5.50;99.90;;;;;;5052057;28;20246;-76
2022/10/24 01:21:57;;;;;;;0.70;0.70;;;5.50;99.90;;;;;;5053438;28;20197;-76
2022/10/24 01:24:57;;;;;;;0.63;0.63;;;5.50;99.90;;;;;;5052816;28;20208;-76
2022/10/24 01:27:38;;;;;;;0.70;0.70;;;5.50;99.90;;;;;;5021513;28;20210;-77
2022/10/24 01:30:09;;;;;;;0.70;0.70;;;5.50;99.90;;;;;;5033375;28;20197;-76
2022/10/24 01:32:56;;;;;;;0.70;0.70;;;5.50;99.90;;;;;;5033148;28;20198;-76
2022/10/24 01:35:55;;;;;;;0.50;0.50;;;5.50;99.90;;;;;;5032880;28;20262;-76
2022/10/24 01:38:41;;;;;;;0.60;0.60;;;5.60;99.90;;;;;;5031795;28;20654;-76
2022/10/24 01:41:20;;;;;;;0.50;0.50;;;5.60;99.90;;;;;;5042969;28;20259;-76
2022/10/24 01:43:54;;;;;;;0.70;0.70;;;5.60;99.90;;;;;;5046470;28;20278;-76
2022/10/24 01:46:26;;;;;;;0.70;0.70;;;5.50;99.90;;;;;;5051394;28;20291;-76
2022/10/24 01:49:06;;;;;;;0.55;0.55;;;5.50;99.90;;;;;;5052937;28;20190;-77
2022/10/24 01:51:32;;;;;;;0.50;0.50;;;5.60;99.90;;;;;;5052790;28;20562;-77
2022/10/24 01:53:59;;;;;;;0.60;0.60;;;5.50;99.90;;;;;;5051609;28;20216;-76
2022/10/24 01:56:26;;;;;;;0.63;0.63;;;5.60;99.90;;;;;;5050534;28;20691;-77
2022/10/24 01:58:51;;;;;;;0.60;0.60;;;5.50;99.90;;;;;;5052312;28;20277;-76
2022/10/24 02:01:22;;;;;;;0.60;0.60;;;5.50;99.90;;;;;;5050069;28;20292;-76
2022/10/24 02:03:59;;;;;;;0.55;0.55;;;5.60;99.90;;;;;;5051752;28;20659;-77
2022/10/24 02:06:30;;;;;;;0.60;0.60;;;5.60;99.90;;;;;;5052530;28;20203;-77
2022/10/24 02:09:04;;;;;;;0.50;0.50;;;5.50;99.90;;;;;;5052796;28;20190;-76
2022/10/24 02:11:30;;;;;;;0.73;0.73;;;5.60;99.90;;;;;;5051585;28;20255;-75
2022/10/24 02:14:03;;;;;;;0.70;0.70;;;5.60;99.90;;;;;;5051256;28;20282;-77
2022/10/24 02:16:29;;;;;;;0.65;0.65;;;5.50;99.90;;;;;;5051386;28;20200;-77
2022/10/24 02:18:56;;;;;;;0.65;0.65;;;5.50;99.90;;;;;;5052647;28;20196;-77
2022/10/24 02:22:10;;;;;;;0.70;0.70;;;5.50;99.90;;;;;;5051004;28;20564;-77
2022/10/24 02:24:52;;;;;;;0.60;0.60;;;5.50;99.90;;;;;;4974701;28;20253;-77
2022/10/24 02:28:07;;;;;;;0.50;0.50;;;5.60;99.90;;;;;;4973970;28;20354;-76
2022/10/24 02:30:38;;;;;;;0.70;0.70;;;5.60;99.90;;;;;;4970921;28;20297;-76
2022/10/24 02:33:04;;;;;;;0.70;0.70;;;5.60;99.90;;;;;;4991118;28;20615;-77
2022/10/24 02:35:33;;;;;;;0.60;0.60;;;5.60;99.90;;;;;;4990952;28;20686;-78
2022/10/24 02:38:17;;;;;;;0.63;0.63;;;5.60;99.90;;;;;;4990870;28;20790;-76
2022/10/24 02:40:44;;;;;;;0.55;0.55;;;5.60;99.90;;;;;;4989700;28;20212;-77
2022/10/24 02:43:12;;;;;;;0.50;0.50;;;5.60;99.90;;;;;;4990589;28;20324;-78
2022/10/24 02:45:39;;;;;;;0.77;0.77;;;5.60;99.90;;;;;;4974703;28;20295;-76
2022/10/24 02:48:10;;;;;;;0.60;0.60;;;5.60;99.90;;;;;;4990996;28;20199;-77
2022/10/24 02:50:39;;;;;;;0.60;0.60;;;5.60;99.90;;;;;;4990406;28;20227;-76
2022/10/24 02:53:04;;;;;;;0.70;0.70;;;5.60;99.90;;;;;;4990828;28;20211;-76
2022/10/24 02:55:30;;;;;;;0.60;0.60;;;5.60;99.90;;;;;;4990273;28;20238;-76
2022/10/24 02:57:56;;;;;;;0.60;0.60;;;5.60;99.90;;;;;;4997221;28;20197;-75
2022/10/24 03:00:21;;;;;;;0.70;0.70;;;5.60;99.90;;;;;;5049702;28;20190;-77
2022/10/24 03:02:47;;;;;;;0.55;0.55;;;5.70;99.90;;;;;;5047953;28;20201;-77
2022/10/24 03:05:13;;;;;;;0.70;0.70;;;5.60;99.90;;;;;;5072228;28;20196;-76
2022/10/24 03:07:38;;;;;;;0.60;0.60;;;5.70;99.90;;;;;;5070972;28;20215;-76
2022/10/24 03:10:04;;;;;;;0.50;0.50;;;5.70;99.90;;;;;;5063529;28;20209;-77
2022/10/24 03:12:30;;;;;;;0.60;0.60;;;5.70;99.90;;;;;;5053338;28;20205;-77
2022/10/24 03:14:56;;;;;;;0.70;0.70;;;5.80;99.90;;;;;;5054763;28;20218;-77
2022/10/24 03:17:22;;;;;;;0.70;0.70;;;5.70;99.90;;;;;;5055425;28;20189;-77
2022/10/24 03:19:48;;;;;;;0.70;0.70;;;5.70;99.90;;;;;;5055786;28;20213;-76
2022/10/24 03:22:14;;;;;;;1.08;0.98;;;5.70;99.90;;;;;;5054430;28;20613;-78
2022/10/24 03:24:39;;;;;;;0.50;0.50;;;5.80;99.90;;;;;;5055237;28;20280;-77
2022/10/24 03:27:05;;;;;;;0.40;0.40;;;5.70;99.90;;;;;;5053581;28;20237;-77
2022/10/24 03:29:31;;;;;;;0.68;0.68;;;5.70;99.90;;;;;;5055479;28;20194;-77
2022/10/24 03:31:57;;;;;;;0.73;0.73;;;5.70;99.90;;;;;;5055617;28;20189;-76
2022/10/24 03:34:22;;;;;;;0.60;0.60;;;5.70;99.90;;;;;;5054938;28;20243;-76
2022/10/24 03:36:48;;;;;;;0.63;0.63;;;5.70;99.90;;;;;;5055266;28;20225;-76
2022/10/24 03:39:14;;;;;;;2.17;2.05;;;5.70;99.90;;;;;;5054925;28;20194;-76
2022/10/24 03:41:39;;;;;;;2.90;2.60;;;5.70;99.90;;;;;;5053693;28;20240;-77
2022/10/24 03:44:05;;;;;;;2.55;2.35;;;5.70;99.90;;;;;;5053628;28;20288;-77
2022/10/24 03:46:31;;;;;;;1.17;1.17;;;5.70;99.90;;;;;;5053694;28;20190;-77
2022/10/24 03:48:56;;;;;;;0.93;0.93;;;5.70;99.90;;;;;;5055091;28;20196;-77
2022/10/24 03:51:22;;;;;;;0.68;0.68;;;5.70;99.90;;;;;;5053649;28;20204;-77
2022/10/24 03:53:47;;;;;;;1.13;1.02;;;5.80;99.90;;;;;;5054812;28;20193;-78
2022/10/24 03:56:13;;;;;;;0.70;0.70;;;5.80;99.90;;;;;;5054088;28;20205;-77
2022/10/24 03:58:39;;;;;;;0.57;0.57;;;5.80;99.90;;;;;;5053440;28;21394;-77
2022/10/24 04:01:04;;;;;;;0.70;0.70;;;5.80;99.90;;;;;;5053338;28;20198;-76
2022/10/24 04:03:30;;;;;;;0.70;0.70;;;5.80;99.90;;;;;;5054710;28;20269;-77
2022/10/24 04:05:56;;;;;;;0.60;0.60;;;5.80;99.90;;;;;;5054706;28;20198;-76
2022/10/24 04:08:21;;;;;;;0.50;0.50;;;5.80;99.90;;;;;;5054527;28;20200;-76
2022/10/24 04:10:48;;;;;;;0.60;0.60;;;5.90;99.90;;;;;;5054737;28;20243;-76
2022/10/24 04:13:14;;;;;;;0.70;0.70;;;5.80;99.90;;;;;;5052594;28;20207;-76
2022/10/24 04:15:39;;;;;;;0.60;0.60;;;5.80;99.90;;;;;;5052617;28;20292;-76
2022/10/24 04:18:07;;;;;;;0.50;0.50;;;5.80;99.90;;;;;;5053990;28;20243;-76
2022/10/24 04:20:33;;;;;;;0.50;0.50;;;5.80;99.90;;;;;;5052648;28;20193;-76
2022/10/24 04:22:59;;;;;;;0.60;0.60;;;5.80;99.90;;;;;;5054393;28;20227;-76
2022/10/24 04:25:24;;;;;;;0.60;0.60;;;5.80;99.90;;;;;;5052902;28;20656;-77
2022/10/24 04:27:50;;;;;;;0.90;0.90;;;5.80;99.90;;;;;;5052257;28;20348;-76
2022/10/24 04:30:16;;;;;;;0.57;0.57;;;5.80;99.90;;;;;;5054367;28;20555;-76
2022/10/24 04:32:41;;;;;;;0.60;0.60;;;5.80;99.90;;;;;;5052852;28;20204;-76
2022/10/24 04:35:07;;;;;;;0.70;0.70;;;5.80;99.90;;;;;;5054213;28;20205;-77
2022/10/24 04:37:33;;;;;;;0.70;0.70;;;5.80;99.90;;;;;;5054031;28;20556;-77
2022/10/24 04:39:59;;;;;;;0.60;0.60;;;5.80;99.90;;;;;;5052545;28;20197;-76
2022/10/24 04:42:25;;;;;;;0.75;0.75;;;5.80;99.90;;;;;;5052834;28;20217;-77
2022/10/24 04:44:51;;;;;;;0.80;0.80;;;5.80;99.90;;;;;;5036405;28;20563;-76
2022/10/24 04:47:17;;;;;;;0.60;0.60;;;5.80;99.90;;;;;;5033785;28;20194;-76
2022/10/24 04:49:43;;;;;;;0.60;0.60;;;5.90;99.90;;;;;;5049178;28;20218;-77
2022/10/24 04:52:08;;;;;;;0.70;0.70;;;5.90;99.90;;;;;;5052462;28;20614;-77
2022/10/24 04:54:34;;;;;;;0.60;0.60;;;5.90;99.90;;;;;;5052025;28;20236;-74
2022/10/24 04:57:00;;;;;;;0.60;0.60;;;5.80;99.90;;;;;;5051046;28;20209;-76
2022/10/24 04:59:25;;;;;;;0.60;0.60;;;5.80;99.90;;;;;;5053711;28;20288;-77
2022/10/24 05:01:53;;;;;;;0.60;0.60;;;5.90;99.90;;;;;;5053323;28;20201;-76
2022/10/24 05:04:18;;;;;;;0.60;0.60;;;5.90;99.90;;;;;;5053631;28;20217;-76
2022/10/24 05:06:45;;;;;;;0.50;0.50;;;5.80;99.90;;;;;;5053837;28;20240;-76
2022/10/24 05:09:11;;;;;;;0.70;0.70;;;5.80;99.90;;;;;;5053646;28;20196;-77
2022/10/24 05:11:36;;;;;;;0.60;0.60;;;5.80;99.90;;;;;;5053418;28;20202;-75
2022/10/24 05:14:02;;;;;;;1.85;1.08;;;5.80;99.90;;;;;;5051473;28;20193;-76
2022/10/24 05:16:27;;;;;;;0.50;0.50;;;5.80;99.90;;;;;;5051766;28;20213;-76
2022/10/24 05:18:53;;;;;;;0.70;0.70;;;5.80;99.90;;;;;;5053330;28;20273;-76
2022/10/24 05:21:19;;;;;;;0.60;0.60;;;5.80;99.90;;;;;;5053380;28;20220;-75
2022/10/24 05:23:44;;;;;;;0.60;0.60;;;5.80;99.90;;;;;;5052322;28;20640;-76
2022/10/24 05:26:10;;;;;;;0.50;0.50;;;5.80;99.90;;;;;;5051964;28;20212;-75
2022/10/24 05:28:35;;;;;;;0.60;0.60;;;5.80;99.90;;;;;;5052375;28;20193;-76
2022/10/24 05:31:01;;;;;;;0.55;0.55;;;5.80;99.90;;;;;;5053136;28;20193;-76
2022/10/24 05:33:27;;;;;;;0.70;0.70;;;5.80;99.90;;;;;;5050414;28;20266;-76
2022/10/24 05:35:53;;;;;;;0.70;0.70;;;5.80;99.90;;;;;;5051741;28;20711;-76
2022/10/24 05:38:19;;;;;;;0.50;0.50;;;5.80;99.90;;;;;;5050825;28;20194;-76
2022/10/24 05:40:48;;;;;;;0.70;0.70;;;5.90;99.90;;;;;;5052883;28;20202;-75
2022/10/24 05:43:15;;;;;;;0.70;0.70;;;5.80;99.90;;;;;;5047505;28;20684;-74
2022/10/24 05:45:41;;;;;;;0.70;0.70;;;5.80;99.90;;;;;;5032908;28;20205;-76
2022/10/24 05:48:07;;;;;;;0.50;0.50;;;5.90;99.90;;;;;;5050487;28;20201;-76
2022/10/24 05:50:33;;;;;;;0.60;0.60;;;5.90;99.90;;;;;;5051411;28;20197;-76
2022/10/24 05:52:59;;;;;;;0.50;0.50;;;5.80;99.90;;;;;;5052646;28;20681;-76
2022/10/24 05:55:25;;;;;;;1.52;1.42;;;5.90;99.90;;;;;;5052709;28;20228;-76
2022/10/24 05:57:51;;;;;;;0.70;0.70;;;5.90;99.90;;;;;;5050438;28;20246;-77
2022/10/24 06:00:17;;;;;;;0.50;0.50;;;5.90;99.90;;;;;;5051512;28;20193;-77
2022/10/24 06:04:01;;;;;;;0.60;0.60;;;5.90;99.90;;;;;;5053195;28;20186;-76
2022/10/24 06:06:27;;;;;;;0.70;0.70;;;5.80;99.90;;;;;;5007297;28;20210;-75
2022/10/24 06:08:53;;;;;;;0.60;0.60;;;5.80;99.90;;;;;;5052816;28;20194;-75
2022/10/24 06:11:19;;;;;;;0.50;0.50;;;5.80;99.90;;;;;;5052597;28;20682;-76
2022/10/24 06:13:44;;;;;;;0.50;0.50;;;5.80;99.90;;;;;;5050332;28;20201;-76
2022/10/24 06:16:29;;;;;;;0.60;0.60;;;5.80;99.90;;;;;;5054147;28;20208;-78
2022/10/24 06:18:56;;;;;;;0.70;0.70;;;5.90;99.90;;;;;;5053398;28;20262;-77
2022/10/24 06:21:48;;;;;;;0.60;0.60;;;5.90;99.90;;;;;;5053623;28;20200;-74
2022/10/24 06:24:13;;;;;;;0.60;0.60;;;5.90;99.90;;;;;;5051374;28;20224;-77
2022/10/24 06:26:39;;;;;;;0.60;0.60;;;5.90;99.90;;;;;;5051757;28;20236;-78
2022/10/24 06:29:04;;;;;;;0.57;0.57;;;5.90;99.90;;;;;;5052106;28;20621;-76
2022/10/24 06:31:45;;;;;;;0.65;0.65;;;5.90;99.90;;;;;;5053464;28;20578;-76
2022/10/24 06:34:11;;;;;;;0.57;0.57;;;5.90;99.90;;;;;;5051679;28;20208;-76
2022/10/24 06:36:36;;;;;;;0.80;0.80;;;5.90;99.90;;;;;;5051666;28;20304;-77
2022/10/24 06:39:02;;;;;;;0.60;0.60;;;5.90;99.90;;;;;;5052776;28;20186;-76
2022/10/24 06:41:54;;;;;;;0.68;0.68;;;5.90;99.90;;;;;;5050840;28;20720;-75
2022/10/24 06:44:23;;;;;;;0.50;0.50;;;5.90;99.90;;;;;;5043305;28;20213;-77
2022/10/24 06:50:03;;;;;;;0.63;0.63;;;5.90;99.90;;;;;;5014400;28;20287;-77
2022/10/24 06:52:29;;;;;;;0.60;0.60;;;6.00;99.90;;;;;;5053458;28;20212;-77
2022/10/24 06:54:54;;;;;;;0.60;0.60;;;6.00;99.90;;;;;;5056333;28;20292;-75
2022/10/24 06:57:20;;;;;;;0.70;0.70;;;6.00;99.90;;;;;;5055821;28;20217;-76
2022/10/24 06:59:49;;;;;;;0.52;0.52;;;6.00;99.90;;;;;;5054550;28;20198;-76
2022/10/24 07:05:38;;;;;;;0.60;0.60;;;6.10;99.90;;;;;;5001979;28;21298;-73
2022/10/24 07:08:04;;;;;;;0.63;0.63;;;6.00;99.90;;;;;;5055938;28;20193;-74
2022/10/24 07:10:33;;;;;;;0.80;0.80;;;6.00;99.90;;;;;;5054347;28;20205;-74
2022/10/24 07:12:59;;;;;;;0.60;0.60;;;6.00;99.90;;;;;;5053545;28;20519;-73
2022/10/24 07:15:30;;;;;;;0.68;0.68;;;6.00;99.90;;;;;;5055431;28;20288;-73
2022/10/24 07:17:56;;;;;;;0.50;0.50;;;6.00;99.90;;;;;;5055977;28;20272;-73
2022/10/24 07:20:25;;;;;;;0.70;0.70;;;6.10;99.90;;;;;;5056896;28;20627;-73
2022/10/24 07:22:51;;;;;;;0.60;0.60;;;6.10;99.90;;;;;;5055376;28;20198;-74
2022/10/24 07:25:23;;;;;;;0.60;0.60;;;6.10;99.90;;;;;;5055747;28;20251;-76
2022/10/24 07:27:51;;;;;;;0.63;0.63;;;6.10;99.90;;;;;;5054818;28;20592;-77
2022/10/24 07:30:43;;;;;;;0.65;0.65;;;6.20;99.90;;;;;;5053829;28;20212;-74
2022/10/24 07:33:09;;;;;;;1.10;1.00;;;6.30;99.90;;;;;;4974882;28;20220;-75
2022/10/24 07:35:39;;;;;;;1.92;1.80;;;6.30;99.90;;;;;;5045270;28;20586;-74
2022/10/24 07:38:05;;;;;;;0.60;0.60;;;6.30;99.90;;;;;;5055018;28;20565;-75
2022/10/24 07:40:31;;;;;;;0.70;0.70;;;6.40;99.90;;;;;;5055133;28;20200;-76
2022/10/24 07:42:56;;;;;;;0.60;0.60;;;6.40;99.90;;;;;;5058295;28;20224;-73
2022/10/24 07:45:32;;;;;;;0.65;0.65;;;6.40;99.90;;;;;;5075043;28;20585;-76
2022/10/24 07:48:05;;;;;;;0.70;0.70;;;6.50;99.90;;;;;;5075268;28;20223;-76
2022/10/24 07:50:40;;;;;;;1.00;1.00;;;6.50;99.90;;;;;;5075775;28;20655;-76
2022/10/24 07:53:06;;;;;;;0.60;0.60;;;6.50;99.90;;;;;;5075130;28;20184;-76
2022/10/24 07:55:34;;;;;;;0.60;0.60;;;6.60;99.90;;;;;;5074920;28;20209;-76
2022/10/24 07:58:00;;;;;;;0.60;0.60;;;6.60;99.90;;;;;;5075414;28;20253;-76
2022/10/24 08:00:25;;;;;;;0.50;0.50;;;6.60;99.90;;;;;;5056117;28;20333;-76
2022/10/24 08:02:51;;;;;;;0.52;0.52;;;6.60;99.90;;;;;;5075457;28;20193;-74
2022/10/24 08:05:17;;;;;;;0.60;0.60;;;6.70;99.90;;;;;;5074848;28;20199;-76
2022/10/24 08:07:55;;;;;;;0.57;0.57;;;6.60;99.90;;;;;;5075797;28;20275;-76
2022/10/24 08:10:21;;;;;;;1.42;1.10;;;6.70;99.90;;;;;;5074366;28;20702;-75
2022/10/24 08:12:46;;;;;;;0.47;0.47;;;6.70;99.90;;;;;;5074940;28;20193;-76
2022/10/24 08:15:29;;;;;;;0.60;0.60;;;6.70;99.90;;;;;;5074417;28;20684;-76
2022/10/24 08:17:55;;;;;;;0.70;0.70;;;6.70;99.90;;;;;;5075351;28;20280;-76
2022/10/24 08:20:25;;;;;;;0.70;0.70;;;6.80;99.90;;;;;;5074396;28;20189;-76
2022/10/24 08:23:07;;;;;;;2.42;1.42;;;6.80;99.90;;;;;;5057098;28;20193;-74
2022/10/24 08:25:55;;;;;;;1.02;1.02;;;6.80;99.90;;;;;;5058373;28;20205;-77
2022/10/24 08:28:22;;;;;;;0.52;0.52;;;6.70;99.90;;;;;;5073720;28;20542;-74
2022/10/24 08:31:03;;;;;;;0.70;0.70;;;6.70;99.90;;;;;;5055873;28;20207;-74
2022/10/24 08:33:29;;;;;;;0.70;0.70;;;6.70;99.90;;;;;;5073895;28;20203;-74
2022/10/24 08:35:58;;;;;;;0.57;0.57;;;6.70;99.90;;;;;;5073955;28;20211;-75
2022/10/24 08:38:24;;;;;;;0.70;0.70;;;6.80;99.90;;;;;;5073907;28;20216;-75
2022/10/24 08:40:50;;;;;;;0.60;0.60;;;6.80;99.90;;;;;;5074048;28;20242;-76
2022/10/24 08:43:18;;;;;;;0.60;0.60;;;6.80;99.90;;;;;;5052366;28;20217;-74
2022/10/24 08:46:10;;;;;;;0.70;0.70;;;6.80;99.90;;;;;;5071905;28;20193;-75
2022/10/24 08:49:01;;;;;;;0.50;0.50;;;6.90;99.90;;;;;;5056967;28;20209;-75
2022/10/24 08:51:46;;;;;;;0.70;0.70;;;6.90;99.90;;;;;;5055728;28;20196;-75
2022/10/24 08:54:17;;;;;;;0.50;0.50;;;7.00;99.90;;;;;;5073721;28;20200;-75
2022/10/24 08:56:43;;;;;;;0.60;0.60;;;7.10;99.90;;;;;;5073226;28;20261;-76
2022/10/24 08:59:11;;;;;;;0.60;0.60;;;7.10;99.90;;;;;;5054817;28;20204;-76
2022/10/24 09:01:49;;;;;;;0.65;0.65;;;7.10;99.90;;;;;;5073533;28;20195;-75
2022/10/24 09:04:18;;;;;;;0.60;0.60;;;7.20;99.90;;;;;;5073793;28;20398;-76
2022/10/24 09:06:49;;;;;;;0.60;0.60;;;7.20;99.90;;;;;;5072668;28;20200;-75
2022/10/24 09:09:28;;;;;;;0.70;0.70;;;7.30;99.90;;;;;;5073379;28;20204;-77
2022/10/24 09:12:08;;;;;;;0.60;0.60;;;7.30;99.90;;;;;;5073679;28;20181;-76
2022/10/24 09:14:38;;;;;;;0.60;0.60;;;7.30;99.90;;;;;;5072232;28;20279;-75
2022/10/24 09:20:33;;;;;;;0.63;0.63;;;7.30;99.90;;;;;;5073622;28;20204;-76
2022/10/24 09:23:03;;;;;;;1.63;1.50;;;7.30;99.90;;;;;;5055249;28;20251;-76
2022/10/24 09:25:33;;;;;;;0.60;0.60;;;7.20;99.90;;;;;;5073110;28;20652;-75
2022/10/24 09:28:04;;;;;;;0.55;0.55;;;7.20;99.90;;;;;;5073109;28;20275;-75
2022/10/24 09:30:30;;;;;;;1.75;1.65;;;7.20;99.90;;;;;;5072308;28;20200;-75
2022/10/24 09:33:01;;;;;;;0.60;0.60;;;7.20;99.90;;;;;;5072935;28;20594;-76
2022/10/24 09:35:29;;;;;;;0.60;0.60;;;7.20;99.90;;;;;;5038014;28;20209;-76
2022/10/24 09:38:18;;;;;;;0.70;0.70;;;7.20;99.90;;;;;;5053015;28;20232;-75
2022/10/24 09:40:49;;;;;;;0.68;0.68;;;7.30;99.90;;;;;;5034606;28;20632;-76
2022/10/24 09:43:20;;;;;;;3.25;1.60;;;7.30;99.90;;;;;;5053228;28;20262;-77
2022/10/24 09:45:50;;;;;;;1.20;1.13;;;7.30;99.90;;;;;;5052216;28;20659;-76
2022/10/24 09:49:15;;;;;;;1.95;1.70;;;7.30;99.90;;;;;;5035603;28;20197;-77
2022/10/24 09:51:45;;;;;;;0.55;0.55;;;7.30;99.90;;;;;;4993118;28;20210;-77
2022/10/24 09:54:19;;;;;;;0.60;0.60;;;7.30;99.90;;;;;;5015310;28;20206;-76
2022/10/24 09:56:47;;;;;;;0.63;0.63;;;7.30;99.90;;;;;;5032870;28;20217;-77
2022/10/24 09:59:35;;;;;;;0.60;0.60;;;7.30;99.90;;;;;;5033208;28;20556;-75
2022/10/24 10:02:19;;;;;;;0.70;0.70;;;7.30;99.90;;;;;;5052579;28;20193;-76
2022/10/24 10:05:22;;;;;;;0.50;0.50;;;7.40;99.90;;;;;;5034898;28;20197;-76
2022/10/24 10:07:49;;;;;;;0.60;0.60;;;7.40;99.90;;;;;;5034800;28;20197;-77
2022/10/24 10:10:27;;;;;;;0.60;0.60;;;7.40;99.90;;;;;;5052577;28;20196;-76
2022/10/24 10:13:11;;;;;;;0.60;0.60;;;7.50;99.90;;;;;;5052658;28;20648;-77
2022/10/24 10:15:52;;;;;;;5.72;3.40;;;7.50;99.90;;;;;;5051380;28;20201;-76
2022/10/24 10:18:38;;;;;;;0.90;0.90;;;7.60;99.90;;;;;;5034540;28;20189;-75
2022/10/24 10:21:24;;;;;;;0.60;0.60;;;7.60;99.90;;;;;;5056579;28;20201;-75
2022/10/24 10:23:52;;;;;;;0.68;0.68;;;7.70;99.90;;;;;;5056340;28;20185;-76
2022/10/24 10:26:40;;;;;;;0.88;0.88;;;7.70;99.90;;;;;;5056552;28;20197;-75
2022/10/24 10:29:22;;;;;;;0.60;0.60;;;7.80;99.90;;;;;;5053813;28;20663;-74
2022/10/24 10:31:53;;;;;;;0.60;0.60;;;7.90;99.90;;;;;;5038089;28;20729;-76
2022/10/24 10:34:34;;;;;;;0.77;0.77;;;7.90;99.90;;;;;;5056758;28;20197;-75
2022/10/24 10:37:26;;;;;;;0.60;0.60;;;8.00;99.90;;;;;;5038373;28;20212;-75
2022/10/24 10:40:10;;;;;;;0.60;0.60;;;8.00;99.90;;;;;;5056860;28;20274;-76
2022/10/24 10:43:06;;;;;;;0.60;0.60;;;8.00;99.90;;;;;;5055914;28;20263;-75
2022/10/24 10:45:40;;;;;;;0.70;0.70;;;8.00;99.90;;;;;;5044022;28;20261;-74
2022/10/24 10:48:24;;;;;;;0.60;0.60;;;8.10;99.90;;;;;;5030288;28;20203;-75
2022/10/24 10:51:02;;;;;;;0.70;0.70;;;8.20;99.90;;;;;;5018338;28;20689;-75
2022/10/24 10:54:01;;;;;;;0.57;0.57;;;8.20;99.90;;;;;;5036036;28;20186;-75
2022/10/24 10:56:47;;;;;;;0.70;0.70;;;8.20;99.90;;;;;;5035719;28;20224;-74
2022/10/24 10:59:19;;;;;;;0.80;0.80;;;8.30;99.90;;;;;;5018313;28;20616;-75
2022/10/24 11:01:55;;;;;;;0.70;0.70;;;8.40;99.90;;;;;;5034876;28;20198;-74
2022/10/24 11:04:47;;;;;;;0.52;0.52;;;8.30;99.90;;;;;;5055612;28;20193;-74
2022/10/24 11:07:17;;;;;;;0.50;0.50;;;8.30;99.90;;;;;;5000610;28;20210;-74
2022/10/24 11:10:45;;;;;;;0.60;0.60;;;8.30;99.90;;;;;;5038452;28;20204;-76
2022/10/24 11:13:30;;;;;;;0.82;0.82;;;8.30;99.90;;;;;;5057112;28;20607;-75
2022/10/24 11:15:59;;;;;;;0.70;0.70;;;8.20;99.90;;;;;;5054619;28;20258;-76
2022/10/24 11:18:41;;;;;;;0.60;0.60;;;8.20;99.90;;;;;;5037629;28;20247;-75
2022/10/24 11:21:12;;;;;;;0.50;0.50;;;8.20;99.90;;;;;;5055726;28;20560;-76
2022/10/24 11:24:10;;;;;;;0.70;0.70;;;8.20;99.90;;;;;;5056440;28;20240;-76
2022/10/24 11:26:45;;;;;;;0.52;0.52;;;8.30;99.90;;;;;;5056769;28;20188;-76
2022/10/24 11:29:14;;;;;;;0.80;0.80;;;8.30;99.90;;;;;;5050781;28;20201;-75
2022/10/24 11:31:48;;;;;;;0.50;0.50;;;8.30;99.90;;;;;;5029072;28;20671;-75
2022/10/24 11:34:39;;;;;;;0.90;0.90;;;8.30;99.90;;;;;;5035499;28;20276;-77
2022/10/24 11:37:15;;;;;;;0.70;0.70;;;8.40;99.90;;;;;;5033700;28;20210;-76
2022/10/24 11:40:15;;;;;;;0.60;0.60;;;8.40;99.90;;;;;;5037016;28;20652;-75
2022/10/24 11:43:21;;;;;;;0.60;0.60;;;8.40;99.90;;;;;;5041405;28;20221;-76
2022/10/24 11:45:55;;;;;;;0.70;0.70;;;8.40;99.90;;;;;;4973430;28;20211;-77
2022/10/24 11:48:29;;;;;;;0.60;0.60;;;8.50;99.90;;;;;;4957149;28;20212;-77
2022/10/24 11:51:10;;;;;;;1.15;1.05;;;8.50;99.90;;;;;;4957997;28;20304;-77
2022/10/24 11:53:38;;;;;;;0.60;0.60;;;8.60;99.90;;;;;;4957794;28;20204;-76
2022/10/24 11:56:10;;;;;;;0.60;0.60;;;8.60;99.90;;;;;;4957825;28;20220;-76
2022/10/24 11:59:06;;;;;;;0.60;0.60;;;8.60;99.90;;;;;;4957509;28;20243;-77
2022/10/24 12:02:03;;;;;;;0.60;0.60;;;8.60;99.90;;;;;;4970195;28;20351;-77
2022/10/24 12:04:50;;;;;;;0.70;0.70;;;8.70;99.90;;;;;;4957717;28;20196;-77
2022/10/24 12:07:30;;;;;;;0.60;0.60;;;8.60;99.90;;;;;;4957770;28;20332;-77
2022/10/24 12:10:20;;;;;;;1.65;1.42;;;8.70;99.90;;;;;;4957695;28;20254;-75
2022/10/24 12:13:07;;;;;;;0.60;0.60;;;8.70;99.90;;;;;;4957652;28;20239;-76
2022/10/24 12:16:00;;;;;;;0.70;0.70;;;8.70;99.90;;;;;;4973490;28;20208;-75
2022/10/24 12:18:45;;;;;;;0.50;0.50;;;8.70;99.90;;;;;;4973251;28;20196;-75
2022/10/24 12:21:21;;;;;;;0.43;0.43;;;8.70;99.90;;;;;;5032603;28;20775;-75
2022/10/24 12:24:00;;;;;;;0.60;0.60;;;8.70;99.90;;;;;;5016158;28;20201;-76
2022/10/24 12:26:31;;;;;;;0.70;0.70;;;8.70;99.90;;;;;;5016338;28;20209;-75
2022/10/24 12:29:27;;;;;;;0.50;0.50;;;8.60;99.90;;;;;;5015845;28;20591;-75
2022/10/24 12:31:53;;;;;;;0.60;0.60;;;8.60;99.90;;;;;;5021461;28;20266;-76
2022/10/24 12:34:19;;;;;;;0.57;0.57;;;8.50;99.90;;;;;;5053891;28;20197;-75
2022/10/24 12:37:13;;;;;;;0.60;0.60;;;8.50;99.90;;;;;;5053421;28;20209;-76
2022/10/24 12:39:48;;;;;;;0.70;0.70;;;8.50;99.90;;;;;;5036010;28;20209;-76
2022/10/24 12:42:25;;;;;;;0.57;0.57;;;8.50;99.90;;;;;;5053517;28;20243;-76
2022/10/24 12:45:28;;;;;;;0.60;0.60;;;8.50;99.90;;;;;;5032915;28;20592;-76
2022/10/24 12:47:54;;;;;;;0.60;0.60;;;8.40;99.90;;;;;;5016213;28;20280;-75
2022/10/24 12:50:22;;;;;;;0.57;0.57;;;8.40;99.90;;;;;;5016308;28;20225;-75
2022/10/24 12:53:03;;;;;;;0.70;0.70;;;8.40;99.90;;;;;;5016138;28;20202;-76
2022/10/24 12:55:30;;;;;;;0.75;0.75;;;8.40;99.90;;;;;;5033587;28;20210;-76
2022/10/24 12:57:56;;;;;;;0.80;0.80;;;8.40;99.90;;;;;;5016274;28;20190;-75
2022/10/24 13:00:30;;;;;;;0.60;0.60;;;8.40;99.90;;;;;;5033665;28;20545;-75
2022/10/24 13:03:05;;;;;;;0.60;0.60;;;8.40;99.90;;;;;;5015938;28;20191;-76
2022/10/24 13:06:00;;;;;;;0.68;0.68;;;8.40;99.90;;;;;;5033595;28;20272;-76
2022/10/24 13:08:26;;;;;;;0.60;0.60;;;8.40;99.90;;;;;;5015984;28;20612;-76
2022/10/24 13:11:24;;;;;;;0.60;0.60;;;8.30;99.90;;;;;;5033831;28;20273;-76
2022/10/24 13:14:17;;;;;;;1.05;0.98;;;8.30;99.90;;;;;;5033689;28;20202;-76
2022/10/24 13:17:10;;;;;;;0.70;0.70;;;8.40;99.90;;;;;;5045107;28;20284;-76
2022/10/24 13:19:36;;;;;;;0.82;0.82;;;8.40;99.90;;;;;;5055087;28;20299;-76
2022/10/24 13:22:02;;;;;;;0.60;0.60;;;8.40;99.90;;;;;;5055502;28;20614;-75
2022/10/24 13:24:35;;;;;;;0.57;0.57;;;8.40;99.90;;;;;;5055328;28;20331;-75
2022/10/24 13:27:10;;;;;;;0.60;0.60;;;8.30;99.90;;;;;;5073195;28;20743;-75
2022/10/24 13:29:38;;;;;;;0.60;0.60;;;8.30;99.90;;;;;;5059421;28;20216;-75
2022/10/24 13:32:04;;;;;;;0.60;0.60;;;8.20;99.90;;;;;;5035358;28;20197;-75
2022/10/24 13:34:53;;;;;;;2.53;1.10;;;8.20;99.90;;;;;;5053371;28;20204;-76
2022/10/24 13:37:28;;;;;;;0.65;0.65;;;8.20;99.90;;;;;;5052800;28;20208;-76
2022/10/24 13:40:01;;;;;;;0.60;0.60;;;8.20;99.90;;;;;;5035106;28;20287;-75